sensor_id;sensor_type;location;lat;lon;timestamp;P1;durP1;ratioP1;P2;durP2;ratioP2
5543;SDS011;2795;47.652;13.128;2023-02-28T00:01:24;12.40;;;5.60;;
5543;SDS011;2795;47.652;13.128;2023-02-28T00:03:51;13.70;;;5.27;;
5543;SDS011;2795;47.652;13.128;2023-02-28T00:06:18;16.27;;;5.93;;
5543;SDS011;2795;47.652;13.128;2023-02-28T00:08:46;20.80;;;6.53;;
5543;SDS011;2795;47.652;13.128;2023-02-28T00:11:13;15.00;;;5.83;;
5543;SDS011;2795;47.652;13.128;2023-02-28T00:13:42;26.77;;;7.07;;
5543;SDS011;2795;47.652;13.128;2023-02-28T00:16:14;15.73;;;5.70;;
5543;SDS011;2795;47.652;13.128;2023-02-28T00:18:42;14.50;;;6.00;;
5543;SDS011;2795;47.652;13.128;2023-02-28T00:21:09;13.00;;;5.87;;
5543;SDS011;2795;47.652;13.128;2023-02-28T00:23:36;12.30;;;5.50;;
5543;SDS011;2795;47.652;13.128;2023-02-28T00:26:03;12.30;;;5.40;;
5543;SDS011;2795;47.652;13.128;2023-02-28T00:28:29;12.67;;;5.53;;
5543;SDS011;2795;47.652;13.128;2023-02-28T00:30:56;13.80;;;5.33;;
5543;SDS011;2795;47.652;13.128;2023-02-28T00:33:23;11.03;;;5.03;;
5543;SDS011;2795;47.652;13.128;2023-02-28T00:35:50;11.13;;;5.40;;
5543;SDS011;2795;47.652;13.128;2023-02-28T00:38:17;16.70;;;6.30;;
5543;SDS011;2795;47.652;13.128;2023-02-28T00:40:43;11.93;;;5.60;;
5543;SDS011;2795;47.652;13.128;2023-02-28T00:43:10;13.00;;;5.70;;
5543;SDS011;2795;47.652;13.128;2023-02-28T00:45:37;10.77;;;5.30;;
5543;SDS011;2795;47.652;13.128;2023-02-28T00:48:03;13.70;;;5.67;;
5543;SDS011;2795;47.652;13.128;2023-02-28T00:50:30;18.33;;;5.77;;
5543;SDS011;2795;47.652;13.128;2023-02-28T00:52:57;9.77;;;5.13;;
5543;SDS011;2795;47.652;13.128;2023-02-28T00:55:23;11.43;;;5.47;;
5543;SDS011;2795;47.652;13.128;2023-02-28T00:57:50;12.27;;;6.20;;
5543;SDS011;2795;47.652;13.128;2023-02-28T01:00:16;18.57;;;6.23;;
5543;SDS011;2795;47.652;13.128;2023-02-28T01:02:43;13.03;;;5.73;;
5543;SDS011;2795;47.652;13.128;2023-02-28T01:05:10;14.10;;;5.37;;
5543;SDS011;2795;47.652;13.128;2023-02-28T01:07:36;9.90;;;4.70;;
5543;SDS011;2795;47.652;13.128;2023-02-28T01:10:04;11.07;;;5.40;;
5543;SDS011;2795;47.652;13.128;2023-02-28T01:12:31;10.93;;;5.10;;
5543;SDS011;2795;47.652;13.128;2023-02-28T01:14:58;9.67;;;4.30;;
5543;SDS011;2795;47.652;13.128;2023-02-28T01:17:24;10.40;;;4.53;;
5543;SDS011;2795;47.652;13.128;2023-02-28T01:19:53;13.33;;;5.40;;
5543;SDS011;2795;47.652;13.128;2023-02-28T01:22:21;9.30;;;4.53;;
5543;SDS011;2795;47.652;13.128;2023-02-28T01:24:48;9.57;;;4.50;;
5543;SDS011;2795;47.652;13.128;2023-02-28T01:27:15;11.30;;;5.10;;
5543;SDS011;2795;47.652;13.128;2023-02-28T01:29:41;16.73;;;5.43;;
5543;SDS011;2795;47.652;13.128;2023-02-28T01:32:08;16.30;;;5.33;;
5543;SDS011;2795;47.652;13.128;2023-02-28T01:34:34;11.83;;;4.83;;
5543;SDS011;2795;47.652;13.128;2023-02-28T01:37:01;8.70;;;4.63;;
5543;SDS011;2795;47.652;13.128;2023-02-28T01:39:29;10.67;;;4.40;;
5543;SDS011;2795;47.652;13.128;2023-02-28T01:41:56;16.20;;;5.43;;
5543;SDS011;2795;47.652;13.128;2023-02-28T01:47:24;9.43;;;5.10;;
5543;SDS011;2795;47.652;13.128;2023-02-28T01:49:52;11.40;;;5.20;;
5543;SDS011;2795;47.652;13.128;2023-02-28T01:52:19;10.30;;;4.90;;
5543;SDS011;2795;47.652;13.128;2023-02-28T01:54:48;11.60;;;5.13;;
5543;SDS011;2795;47.652;13.128;2023-02-28T01:57:18;12.47;;;4.80;;
5543;SDS011;2795;47.652;13.128;2023-02-28T01:59:52;11.33;;;4.60;;
5543;SDS011;2795;47.652;13.128;2023-02-28T02:02:20;12.87;;;5.07;;
5543;SDS011;2795;47.652;13.128;2023-02-28T02:04:52;9.77;;;4.37;;
5543;SDS011;2795;47.652;13.128;2023-02-28T02:07:40;10.50;;;4.17;;
5543;SDS011;2795;47.652;13.128;2023-02-28T02:10:15;16.37;;;5.70;;
5543;SDS011;2795;47.652;13.128;2023-02-28T02:15:51;8.40;;;4.47;;
5543;SDS011;2795;47.652;13.128;2023-02-28T02:18:46;11.07;;;4.50;;
5543;SDS011;2795;47.652;13.128;2023-02-28T02:21:32;10.50;;;4.23;;
5543;SDS011;2795;47.652;13.128;2023-02-28T02:24:28;10.83;;;4.67;;
5543;SDS011;2795;47.652;13.128;2023-02-28T02:35:07;10.13;;;4.30;;
5543;SDS011;2795;47.652;13.128;2023-02-28T02:37:40;12.30;;;4.20;;
5543;SDS011;2795;47.652;13.128;2023-02-28T02:40:14;7.47;;;3.87;;
5543;SDS011;2795;47.652;13.128;2023-02-28T02:42:59;7.40;;;4.03;;
5543;SDS011;2795;47.652;13.128;2023-02-28T02:46:12;12.13;;;4.30;;
5543;SDS011;2795;47.652;13.128;2023-02-28T02:48:21;8.93;;;3.67;;
5543;SDS011;2795;47.652;13.128;2023-02-28T02:50:54;9.00;;;4.00;;
5543;SDS011;2795;47.652;13.128;2023-02-28T02:53:23;11.77;;;4.57;;
5543;SDS011;2795;47.652;13.128;2023-02-28T02:55:53;13.40;;;4.80;;
5543;SDS011;2795;47.652;13.128;2023-02-28T02:58:31;9.10;;;4.20;;
5543;SDS011;2795;47.652;13.128;2023-02-28T03:01:01;8.90;;;4.00;;
5543;SDS011;2795;47.652;13.128;2023-02-28T03:03:28;11.27;;;4.50;;
5543;SDS011;2795;47.652;13.128;2023-02-28T03:05:57;10.63;;;4.37;;
5543;SDS011;2795;47.652;13.128;2023-02-28T03:08:25;8.73;;;4.17;;
5543;SDS011;2795;47.652;13.128;2023-02-28T03:10:56;16.73;;;4.93;;
5543;SDS011;2795;47.652;13.128;2023-02-28T03:13:33;10.30;;;4.73;;
5543;SDS011;2795;47.652;13.128;2023-02-28T03:21:53;10.17;;;4.30;;
5543;SDS011;2795;47.652;13.128;2023-02-28T03:27:54;9.50;;;3.83;;
5543;SDS011;2795;47.652;13.128;2023-02-28T03:30:26;10.23;;;4.70;;
5543;SDS011;2795;47.652;13.128;2023-02-28T03:33:09;13.90;;;4.97;;
5543;SDS011;2795;47.652;13.128;2023-02-28T03:35:59;9.77;;;4.47;;
5543;SDS011;2795;47.652;13.128;2023-02-28T03:39:04;10.53;;;4.20;;
5543;SDS011;2795;47.652;13.128;2023-02-28T03:41:23;9.83;;;3.87;;
5543;SDS011;2795;47.652;13.128;2023-02-28T03:43:58;7.63;;;4.00;;
5543;SDS011;2795;47.652;13.128;2023-02-28T03:46:30;11.80;;;4.40;;
5543;SDS011;2795;47.652;13.128;2023-02-28T03:49:01;10.20;;;4.17;;
5543;SDS011;2795;47.652;13.128;2023-02-28T03:51:30;9.93;;;3.90;;
5543;SDS011;2795;47.652;13.128;2023-02-28T03:53:59;8.03;;;3.30;;
5543;SDS011;2795;47.652;13.128;2023-02-28T03:56:34;11.47;;;3.97;;
5543;SDS011;2795;47.652;13.128;2023-02-28T03:59:06;12.37;;;4.03;;
5543;SDS011;2795;47.652;13.128;2023-02-28T04:01:44;13.40;;;4.60;;
5543;SDS011;2795;47.652;13.128;2023-02-28T04:04:11;10.63;;;4.27;;
5543;SDS011;2795;47.652;13.128;2023-02-28T04:06:39;12.57;;;4.80;;
5543;SDS011;2795;47.652;13.128;2023-02-28T04:09:06;10.50;;;4.57;;
5543;SDS011;2795;47.652;13.128;2023-02-28T04:11:52;13.90;;;4.67;;
5543;SDS011;2795;47.652;13.128;2023-02-28T04:14:21;9.90;;;3.90;;
5543;SDS011;2795;47.652;13.128;2023-02-28T04:16:48;10.03;;;4.00;;
5543;SDS011;2795;47.652;13.128;2023-02-28T04:19:17;15.20;;;4.53;;
5543;SDS011;2795;47.652;13.128;2023-02-28T04:21:44;11.83;;;4.40;;
5543;SDS011;2795;47.652;13.128;2023-02-28T04:24:13;13.60;;;5.00;;
5543;SDS011;2795;47.652;13.128;2023-02-28T04:26:43;13.33;;;4.80;;
5543;SDS011;2795;47.652;13.128;2023-02-28T04:29:12;10.23;;;4.00;;
5543;SDS011;2795;47.652;13.128;2023-02-28T04:31:40;13.83;;;4.90;;
5543;SDS011;2795;47.652;13.128;2023-02-28T04:34:06;10.23;;;4.40;;
5543;SDS011;2795;47.652;13.128;2023-02-28T04:36:33;11.83;;;4.40;;
5543;SDS011;2795;47.652;13.128;2023-02-28T04:38:59;13.90;;;5.00;;
5543;SDS011;2795;47.652;13.128;2023-02-28T04:41:26;11.43;;;4.60;;
5543;SDS011;2795;47.652;13.128;2023-02-28T04:43:57;11.37;;;4.60;;
5543;SDS011;2795;47.652;13.128;2023-02-28T04:46:24;8.63;;;3.67;;
5543;SDS011;2795;47.652;13.128;2023-02-28T04:48:51;9.13;;;4.00;;
5543;SDS011;2795;47.652;13.128;2023-02-28T04:51:18;10.40;;;4.10;;
5543;SDS011;2795;47.652;13.128;2023-02-28T04:53:45;14.10;;;4.90;;
5543;SDS011;2795;47.652;13.128;2023-02-28T04:56:13;9.80;;;4.33;;
5543;SDS011;2795;47.652;13.128;2023-02-28T04:58:41;11.80;;;4.70;;
5543;SDS011;2795;47.652;13.128;2023-02-28T05:01:19;13.80;;;5.20;;
5543;SDS011;2795;47.652;13.128;2023-02-28T05:03:47;19.27;;;7.30;;
5543;SDS011;2795;47.652;13.128;2023-02-28T05:06:14;12.90;;;5.30;;
5543;SDS011;2795;47.652;13.128;2023-02-28T05:08:41;10.53;;;4.70;;
5543;SDS011;2795;47.652;13.128;2023-02-28T05:11:15;15.30;;;5.90;;
5543;SDS011;2795;47.652;13.128;2023-02-28T05:13:49;18.50;;;8.03;;
5543;SDS011;2795;47.652;13.128;2023-02-28T05:16:16;16.50;;;6.23;;
5543;SDS011;2795;47.652;13.128;2023-02-28T05:18:43;12.10;;;5.03;;
5543;SDS011;2795;47.652;13.128;2023-02-28T05:21:31;12.63;;;5.30;;
5543;SDS011;2795;47.652;13.128;2023-02-28T05:23:58;9.10;;;3.97;;
5543;SDS011;2795;47.652;13.128;2023-02-28T05:26:27;9.83;;;4.20;;
5543;SDS011;2795;47.652;13.128;2023-02-28T05:28:54;8.17;;;4.03;;
5543;SDS011;2795;47.652;13.128;2023-02-28T05:31:21;13.03;;;4.50;;
5543;SDS011;2795;47.652;13.128;2023-02-28T05:33:48;7.80;;;4.30;;
5543;SDS011;2795;47.652;13.128;2023-02-28T05:36:15;16.67;;;5.33;;
5543;SDS011;2795;47.652;13.128;2023-02-28T05:38:41;14.87;;;5.07;;
5543;SDS011;2795;47.652;13.128;2023-02-28T05:41:08;12.53;;;5.17;;
5543;SDS011;2795;47.652;13.128;2023-02-28T05:43:36;11.80;;;5.00;;
5543;SDS011;2795;47.652;13.128;2023-02-28T05:46:04;15.03;;;5.40;;
5543;SDS011;2795;47.652;13.128;2023-02-28T05:48:32;8.80;;;4.27;;
5543;SDS011;2795;47.652;13.128;2023-02-28T05:51:00;14.40;;;4.77;;
5543;SDS011;2795;47.652;13.128;2023-02-28T05:53:27;10.73;;;4.67;;
5543;SDS011;2795;47.652;13.128;2023-02-28T05:55:54;14.63;;;5.17;;
5543;SDS011;2795;47.652;13.128;2023-02-28T05:58:21;21.67;;;6.13;;
5543;SDS011;2795;47.652;13.128;2023-02-28T06:00:48;8.33;;;4.43;;
5543;SDS011;2795;47.652;13.128;2023-02-28T06:03:15;11.63;;;4.93;;
5543;SDS011;2795;47.652;13.128;2023-02-28T06:05:41;13.70;;;5.10;;
5543;SDS011;2795;47.652;13.128;2023-02-28T06:08:08;10.00;;;4.93;;
5543;SDS011;2795;47.652;13.128;2023-02-28T06:10:35;9.97;;;5.10;;
5543;SDS011;2795;47.652;13.128;2023-02-28T06:13:02;12.77;;;5.20;;
5543;SDS011;2795;47.652;13.128;2023-02-28T06:15:29;9.50;;;4.60;;
5543;SDS011;2795;47.652;13.128;2023-02-28T06:17:56;15.43;;;5.93;;
5543;SDS011;2795;47.652;13.128;2023-02-28T06:20:23;15.80;;;5.63;;
5543;SDS011;2795;47.652;13.128;2023-02-28T06:22:52;16.13;;;6.10;;
5543;SDS011;2795;47.652;13.128;2023-02-28T06:25:20;14.30;;;5.33;;
5543;SDS011;2795;47.652;13.128;2023-02-28T06:27:47;16.40;;;5.83;;
5543;SDS011;2795;47.652;13.128;2023-02-28T06:30:14;11.70;;;5.50;;
5543;SDS011;2795;47.652;13.128;2023-02-28T06:32:41;13.57;;;4.90;;
5543;SDS011;2795;47.652;13.128;2023-02-28T06:35:07;13.50;;;5.63;;
5543;SDS011;2795;47.652;13.128;2023-02-28T06:37:34;13.10;;;5.37;;
5543;SDS011;2795;47.652;13.128;2023-02-28T06:40:01;18.77;;;6.40;;
5543;SDS011;2795;47.652;13.128;2023-02-28T06:42:28;14.27;;;6.33;;
5543;SDS011;2795;47.652;13.128;2023-02-28T06:44:57;12.10;;;5.70;;
5543;SDS011;2795;47.652;13.128;2023-02-28T06:47:23;12.53;;;6.23;;
5543;SDS011;2795;47.652;13.128;2023-02-28T06:49:50;58.53;;;21.40;;
5543;SDS011;2795;47.652;13.128;2023-02-28T06:52:17;46.77;;;18.57;;
5543;SDS011;2795;47.652;13.128;2023-02-28T06:54:43;43.13;;;17.17;;
5543;SDS011;2795;47.652;13.128;2023-02-28T06:57:10;21.70;;;8.90;;
5543;SDS011;2795;47.652;13.128;2023-02-28T06:59:37;30.03;;;12.60;;
5543;SDS011;2795;47.652;13.128;2023-02-28T07:02:03;40.37;;;16.73;;
5543;SDS011;2795;47.652;13.128;2023-02-28T07:04:32;33.67;;;14.40;;
5543;SDS011;2795;47.652;13.128;2023-02-28T07:06:59;35.30;;;17.07;;
5543;SDS011;2795;47.652;13.128;2023-02-28T07:09:25;14.77;;;6.33;;
5543;SDS011;2795;47.652;13.128;2023-02-28T07:11:56;33.07;;;12.73;;
5543;SDS011;2795;47.652;13.128;2023-02-28T07:14:22;34.77;;;13.10;;
5543;SDS011;2795;47.652;13.128;2023-02-28T07:16:49;40.83;;;17.20;;
5543;SDS011;2795;47.652;13.128;2023-02-28T07:19:16;22.80;;;9.50;;
5543;SDS011;2795;47.652;13.128;2023-02-28T07:21:43;16.30;;;5.57;;
5543;SDS011;2795;47.652;13.128;2023-02-28T07:24:09;14.43;;;5.83;;
5543;SDS011;2795;47.652;13.128;2023-02-28T07:26:36;15.63;;;6.17;;
5543;SDS011;2795;47.652;13.128;2023-02-28T07:29:04;14.63;;;5.83;;
5543;SDS011;2795;47.652;13.128;2023-02-28T07:31:30;15.97;;;5.53;;
5543;SDS011;2795;47.652;13.128;2023-02-28T07:33:57;11.20;;;5.30;;
5543;SDS011;2795;47.652;13.128;2023-02-28T07:36:24;22.33;;;8.20;;
5543;SDS011;2795;47.652;13.128;2023-02-28T07:38:51;23.17;;;10.93;;
5543;SDS011;2795;47.652;13.128;2023-02-28T07:41:18;27.00;;;12.83;;
5543;SDS011;2795;47.652;13.128;2023-02-28T07:43:46;23.17;;;9.23;;
5543;SDS011;2795;47.652;13.128;2023-02-28T07:46:14;18.07;;;7.00;;
5543;SDS011;2795;47.652;13.128;2023-02-28T07:48:42;13.53;;;5.90;;
5543;SDS011;2795;47.652;13.128;2023-02-28T07:51:09;17.07;;;7.20;;
5543;SDS011;2795;47.652;13.128;2023-02-28T07:53:35;23.33;;;10.20;;
5543;SDS011;2795;47.652;13.128;2023-02-28T07:56:03;27.40;;;11.77;;
5543;SDS011;2795;47.652;13.128;2023-02-28T07:58:30;22.03;;;10.10;;
5543;SDS011;2795;47.652;13.128;2023-02-28T08:00:57;19.50;;;7.33;;
5543;SDS011;2795;47.652;13.128;2023-02-28T08:03:31;14.60;;;6.67;;
5543;SDS011;2795;47.652;13.128;2023-02-28T08:05:58;12.50;;;6.03;;
5543;SDS011;2795;47.652;13.128;2023-02-28T08:08:24;15.30;;;6.90;;
5543;SDS011;2795;47.652;13.128;2023-02-28T08:10:55;15.20;;;7.23;;
5543;SDS011;2795;47.652;13.128;2023-02-28T08:13:24;16.60;;;7.07;;
5543;SDS011;2795;47.652;13.128;2023-02-28T08:15:51;17.20;;;7.47;;
5543;SDS011;2795;47.652;13.128;2023-02-28T08:18:18;19.83;;;7.43;;
5543;SDS011;2795;47.652;13.128;2023-02-28T08:20:44;17.57;;;7.37;;
5543;SDS011;2795;47.652;13.128;2023-02-28T08:23:11;15.83;;;6.67;;
5543;SDS011;2795;47.652;13.128;2023-02-28T08:25:37;19.97;;;7.57;;
5543;SDS011;2795;47.652;13.128;2023-02-28T08:28:04;18.40;;;7.20;;
5543;SDS011;2795;47.652;13.128;2023-02-28T08:30:30;20.77;;;8.20;;
5543;SDS011;2795;47.652;13.128;2023-02-28T08:32:57;14.00;;;6.57;;
5543;SDS011;2795;47.652;13.128;2023-02-28T08:35:24;18.63;;;7.40;;
5543;SDS011;2795;47.652;13.128;2023-02-28T08:37:50;20.13;;;8.83;;
5543;SDS011;2795;47.652;13.128;2023-02-28T08:40:17;19.87;;;8.70;;
5543;SDS011;2795;47.652;13.128;2023-02-28T08:42:45;18.13;;;8.40;;
5543;SDS011;2795;47.652;13.128;2023-02-28T08:45:12;20.67;;;7.67;;
5543;SDS011;2795;47.652;13.128;2023-02-28T08:47:40;17.90;;;8.07;;
5543;SDS011;2795;47.652;13.128;2023-02-28T08:50:07;14.33;;;7.23;;
5543;SDS011;2795;47.652;13.128;2023-02-28T08:52:34;19.63;;;7.90;;
5543;SDS011;2795;47.652;13.128;2023-02-28T08:55:01;19.43;;;7.90;;
5543;SDS011;2795;47.652;13.128;2023-02-28T08:57:28;60.07;;;23.17;;
5543;SDS011;2795;47.652;13.128;2023-02-28T08:59:54;19.20;;;8.63;;
5543;SDS011;2795;47.652;13.128;2023-02-28T09:02:21;13.47;;;6.90;;
5543;SDS011;2795;47.652;13.128;2023-02-28T09:04:48;22.67;;;9.00;;
5543;SDS011;2795;47.652;13.128;2023-02-28T09:07:14;14.37;;;8.20;;
5543;SDS011;2795;47.652;13.128;2023-02-28T09:09:41;16.80;;;8.00;;
5543;SDS011;2795;47.652;13.128;2023-02-28T09:12:22;16.77;;;8.63;;
5543;SDS011;2795;47.652;13.128;2023-02-28T09:14:49;28.53;;;10.07;;
5543;SDS011;2795;47.652;13.128;2023-02-28T09:17:15;27.20;;;14.40;;
5543;SDS011;2795;47.652;13.128;2023-02-28T09:19:42;17.70;;;8.20;;
5543;SDS011;2795;47.652;13.128;2023-02-28T09:22:10;16.97;;;7.60;;
5543;SDS011;2795;47.652;13.128;2023-02-28T09:24:37;19.10;;;8.47;;
5543;SDS011;2795;47.652;13.128;2023-02-28T09:27:09;16.10;;;7.50;;
5543;SDS011;2795;47.652;13.128;2023-02-28T09:29:36;18.67;;;7.67;;
5543;SDS011;2795;47.652;13.128;2023-02-28T09:32:03;13.97;;;7.40;;
5543;SDS011;2795;47.652;13.128;2023-02-28T09:34:32;16.53;;;7.43;;
5543;SDS011;2795;47.652;13.128;2023-02-28T09:36:58;13.93;;;7.83;;
5543;SDS011;2795;47.652;13.128;2023-02-28T09:39:25;16.93;;;7.83;;
5543;SDS011;2795;47.652;13.128;2023-02-28T09:41:53;18.00;;;7.83;;
5543;SDS011;2795;47.652;13.128;2023-02-28T09:44:42;16.87;;;8.80;;
5543;SDS011;2795;47.652;13.128;2023-02-28T09:47:32;16.00;;;7.87;;
5543;SDS011;2795;47.652;13.128;2023-02-28T09:50:06;18.63;;;8.50;;
5543;SDS011;2795;47.652;13.128;2023-02-28T09:52:42;20.00;;;7.50;;
5543;SDS011;2795;47.652;13.128;2023-02-28T09:57:41;17.63;;;8.40;;
5543;SDS011;2795;47.652;13.128;2023-02-28T10:00:18;14.30;;;6.90;;
5543;SDS011;2795;47.652;13.128;2023-02-28T10:08:23;15.57;;;6.93;;
5543;SDS011;2795;47.652;13.128;2023-02-28T10:10:57;15.93;;;7.27;;
5543;SDS011;2795;47.652;13.128;2023-02-28T10:13:35;17.63;;;6.93;;
5543;SDS011;2795;47.652;13.128;2023-02-28T10:16:06;14.67;;;6.90;;
5543;SDS011;2795;47.652;13.128;2023-02-28T10:24:04;16.97;;;7.50;;
5543;SDS011;2795;47.652;13.128;2023-02-28T10:26:43;21.50;;;8.37;;
5543;SDS011;2795;47.652;13.128;2023-02-28T10:29:10;16.97;;;7.43;;
5543;SDS011;2795;47.652;13.128;2023-02-28T10:31:37;15.83;;;8.40;;
5543;SDS011;2795;47.652;13.128;2023-02-28T10:34:04;22.30;;;8.03;;
5543;SDS011;2795;47.652;13.128;2023-02-28T10:36:32;17.27;;;6.90;;
5543;SDS011;2795;47.652;13.128;2023-02-28T10:39:01;16.83;;;8.30;;
5543;SDS011;2795;47.652;13.128;2023-02-28T10:41:31;14.23;;;6.63;;
5543;SDS011;2795;47.652;13.128;2023-02-28T10:44:12;13.70;;;7.27;;
5543;SDS011;2795;47.652;13.128;2023-02-28T10:46:40;17.07;;;7.70;;
5543;SDS011;2795;47.652;13.128;2023-02-28T10:49:12;20.23;;;8.63;;
5543;SDS011;2795;47.652;13.128;2023-02-28T10:51:41;16.13;;;8.00;;
5543;SDS011;2795;47.652;13.128;2023-02-28T10:54:15;19.70;;;7.80;;
5543;SDS011;2795;47.652;13.128;2023-02-28T10:56:43;14.80;;;6.77;;
5543;SDS011;2795;47.652;13.128;2023-02-28T11:01:55;12.50;;;6.53;;
5543;SDS011;2795;47.652;13.128;2023-02-28T11:06:59;20.33;;;8.03;;
5543;SDS011;2795;47.652;13.128;2023-02-28T11:09:27;16.17;;;7.90;;
5543;SDS011;2795;47.652;13.128;2023-02-28T11:12:02;15.30;;;7.10;;
5543;SDS011;2795;47.652;13.128;2023-02-28T11:14:33;25.83;;;9.47;;
5543;SDS011;2795;47.652;13.128;2023-02-28T11:17:14;15.60;;;7.27;;
5543;SDS011;2795;47.652;13.128;2023-02-28T11:19:45;27.33;;;8.20;;
5543;SDS011;2795;47.652;13.128;2023-02-28T11:22:18;24.13;;;8.30;;
5543;SDS011;2795;47.652;13.128;2023-02-28T11:24:51;19.67;;;8.60;;
5543;SDS011;2795;47.652;13.128;2023-02-28T11:29:58;39.27;;;8.43;;
5543;SDS011;2795;47.652;13.128;2023-02-28T11:32:28;15.30;;;8.37;;
5543;SDS011;2795;47.652;13.128;2023-02-28T11:37:35;18.30;;;9.23;;
5543;SDS011;2795;47.652;13.128;2023-02-28T11:40:05;19.53;;;8.50;;
5543;SDS011;2795;47.652;13.128;2023-02-28T11:42:48;18.70;;;8.00;;
5543;SDS011;2795;47.652;13.128;2023-02-28T11:48:13;15.93;;;8.03;;
5543;SDS011;2795;47.652;13.128;2023-02-28T11:56:18;18.87;;;8.80;;
5543;SDS011;2795;47.652;13.128;2023-02-28T12:10:20;28.53;;;10.40;;
5543;SDS011;2795;47.652;13.128;2023-02-28T12:12:56;23.40;;;11.20;;
5543;SDS011;2795;47.652;13.128;2023-02-28T12:15:49;20.77;;;9.10;;
5543;SDS011;2795;47.652;13.128;2023-02-28T12:21:14;27.37;;;11.33;;
5543;SDS011;2795;47.652;13.128;2023-02-28T12:26:42;22.43;;;10.70;;
5543;SDS011;2795;47.652;13.128;2023-02-28T12:29:12;25.40;;;11.50;;
5543;SDS011;2795;47.652;13.128;2023-02-28T12:32:09;28.47;;;12.37;;
5543;SDS011;2795;47.652;13.128;2023-02-28T12:34:44;29.50;;;12.50;;
5543;SDS011;2795;47.652;13.128;2023-02-28T12:37:15;24.40;;;11.10;;
5543;SDS011;2795;47.652;13.128;2023-02-28T12:39:46;25.00;;;12.53;;
5543;SDS011;2795;47.652;13.128;2023-02-28T12:42:22;25.23;;;12.00;;
5543;SDS011;2795;47.652;13.128;2023-02-28T12:44:56;24.20;;;11.57;;
5543;SDS011;2795;47.652;13.128;2023-02-28T12:47:25;30.77;;;11.70;;
5543;SDS011;2795;47.652;13.128;2023-02-28T12:49:54;20.90;;;10.80;;
5543;SDS011;2795;47.652;13.128;2023-02-28T12:52:48;29.80;;;12.07;;
5543;SDS011;2795;47.652;13.128;2023-02-28T12:55:31;30.40;;;12.67;;
5543;SDS011;2795;47.652;13.128;2023-02-28T13:01:02;29.50;;;12.03;;
5543;SDS011;2795;47.652;13.128;2023-02-28T13:06:27;29.20;;;13.80;;
5543;SDS011;2795;47.652;13.128;2023-02-28T13:11:40;30.83;;;12.80;;
5543;SDS011;2795;47.652;13.128;2023-02-28T13:15:00;28.73;;;12.23;;
5543;SDS011;2795;47.652;13.128;2023-02-28T13:19:33;37.00;;;14.40;;
5543;SDS011;2795;47.652;13.128;2023-02-28T13:22:02;31.70;;;14.20;;
5543;SDS011;2795;47.652;13.128;2023-02-28T13:24:40;32.80;;;14.73;;
5543;SDS011;2795;47.652;13.128;2023-02-28T13:29:40;27.97;;;13.30;;
5543;SDS011;2795;47.652;13.128;2023-02-28T13:34:39;29.27;;;13.63;;
5543;SDS011;2795;47.652;13.128;2023-02-28T13:39:53;27.33;;;13.40;;
5543;SDS011;2795;47.652;13.128;2023-02-28T13:47:45;31.60;;;13.50;;
5543;SDS011;2795;47.652;13.128;2023-02-28T13:50:22;33.27;;;14.50;;
5543;SDS011;2795;47.652;13.128;2023-02-28T13:52:58;35.20;;;15.43;;
5543;SDS011;2795;47.652;13.128;2023-02-28T14:04:14;23.80;;;12.90;;
5543;SDS011;2795;47.652;13.128;2023-02-28T14:06:53;26.23;;;14.10;;
5543;SDS011;2795;47.652;13.128;2023-02-28T14:09:23;30.70;;;13.67;;
5543;SDS011;2795;47.652;13.128;2023-02-28T14:11:52;33.87;;;13.90;;
5543;SDS011;2795;47.652;13.128;2023-02-28T14:17:03;27.10;;;13.47;;
5543;SDS011;2795;47.652;13.128;2023-02-28T14:19:31;32.27;;;13.07;;
5543;SDS011;2795;47.652;13.128;2023-02-28T14:27:40;28.80;;;13.83;;
5543;SDS011;2795;47.652;13.128;2023-02-28T14:33:18;30.33;;;14.50;;
5543;SDS011;2795;47.652;13.128;2023-02-28T14:36:21;26.33;;;13.00;;
5543;SDS011;2795;47.652;13.128;2023-02-28T14:38:57;26.20;;;12.03;;
5543;SDS011;2795;47.652;13.128;2023-02-28T14:41:30;29.73;;;12.67;;
5543;SDS011;2795;47.652;13.128;2023-02-28T14:44:03;35.33;;;13.83;;
5543;SDS011;2795;47.652;13.128;2023-02-28T14:46:40;31.00;;;14.13;;
5543;SDS011;2795;47.652;13.128;2023-02-28T14:49:19;31.60;;;14.70;;
5543;SDS011;2795;47.652;13.128;2023-02-28T14:54:33;49.00;;;20.07;;
5543;SDS011;2795;47.652;13.128;2023-02-28T14:56:59;79.33;;;25.43;;
5543;SDS011;2795;47.652;13.128;2023-02-28T14:59:28;153.27;;;46.67;;
5543;SDS011;2795;47.652;13.128;2023-02-28T15:07:46;45.63;;;19.90;;
5543;SDS011;2795;47.652;13.128;2023-02-28T15:12:55;37.50;;;19.13;;
5543;SDS011;2795;47.652;13.128;2023-02-28T15:15:35;40.07;;;15.67;;
5543;SDS011;2795;47.652;13.128;2023-02-28T15:19:01;35.03;;;15.37;;
5543;SDS011;2795;47.652;13.128;2023-02-28T15:21:29;33.17;;;16.40;;
5543;SDS011;2795;47.652;13.128;2023-02-28T15:24:04;28.30;;;14.47;;
5543;SDS011;2795;47.652;13.128;2023-02-28T15:26:54;28.57;;;13.93;;
5543;SDS011;2795;47.652;13.128;2023-02-28T15:29:26;41.90;;;21.13;;
5543;SDS011;2795;47.652;13.128;2023-02-28T15:32:00;84.33;;;40.37;;
5543;SDS011;2795;47.652;13.128;2023-02-28T15:34:41;39.13;;;19.30;;
5543;SDS011;2795;47.652;13.128;2023-02-28T15:45:26;52.10;;;25.80;;
5543;SDS011;2795;47.652;13.128;2023-02-28T15:47:54;37.90;;;17.40;;
5543;SDS011;2795;47.652;13.128;2023-02-28T15:50:27;33.90;;;17.43;;
5543;SDS011;2795;47.652;13.128;2023-02-28T15:52:56;36.20;;;14.30;;
5543;SDS011;2795;47.652;13.128;2023-02-28T15:55:24;33.53;;;14.73;;
5543;SDS011;2795;47.652;13.128;2023-02-28T15:57:54;37.70;;;18.10;;
5543;SDS011;2795;47.652;13.128;2023-02-28T16:00:24;35.40;;;14.20;;
5543;SDS011;2795;47.652;13.128;2023-02-28T16:02:52;26.20;;;12.37;;
5543;SDS011;2795;47.652;13.128;2023-02-28T16:05:21;31.43;;;14.30;;
5543;SDS011;2795;47.652;13.128;2023-02-28T16:08:13;35.33;;;18.93;;
5543;SDS011;2795;47.652;13.128;2023-02-28T16:10:41;51.20;;;22.13;;
5543;SDS011;2795;47.652;13.128;2023-02-28T16:13:08;36.07;;;16.53;;
5543;SDS011;2795;47.652;13.128;2023-02-28T16:15:38;44.80;;;21.37;;
5543;SDS011;2795;47.652;13.128;2023-02-28T16:18:12;39.50;;;16.23;;
5543;SDS011;2795;47.652;13.128;2023-02-28T16:20:39;37.37;;;16.50;;
5543;SDS011;2795;47.652;13.128;2023-02-28T16:23:06;41.83;;;22.20;;
5543;SDS011;2795;47.652;13.128;2023-02-28T16:25:34;37.23;;;17.00;;
5543;SDS011;2795;47.652;13.128;2023-02-28T16:28:03;44.70;;;20.77;;
5543;SDS011;2795;47.652;13.128;2023-02-28T16:30:30;33.23;;;15.47;;
5543;SDS011;2795;47.652;13.128;2023-02-28T16:32:57;30.13;;;15.17;;
5543;SDS011;2795;47.652;13.128;2023-02-28T16:35:24;27.27;;;13.03;;
5543;SDS011;2795;47.652;13.128;2023-02-28T16:37:51;37.67;;;17.50;;
5543;SDS011;2795;47.652;13.128;2023-02-28T16:40:19;29.67;;;15.00;;
5543;SDS011;2795;47.652;13.128;2023-02-28T16:42:52;28.17;;;13.97;;
5543;SDS011;2795;47.652;13.128;2023-02-28T16:45:24;35.57;;;14.03;;
5543;SDS011;2795;47.652;13.128;2023-02-28T16:47:53;30.83;;;13.00;;
5543;SDS011;2795;47.652;13.128;2023-02-28T16:52:46;25.37;;;12.60;;
5543;SDS011;2795;47.652;13.128;2023-02-28T16:55:14;27.00;;;12.70;;
5543;SDS011;2795;47.652;13.128;2023-02-28T16:57:40;28.23;;;12.60;;
5543;SDS011;2795;47.652;13.128;2023-02-28T17:00:08;30.43;;;13.70;;
5543;SDS011;2795;47.652;13.128;2023-02-28T17:02:39;32.57;;;12.27;;
5543;SDS011;2795;47.652;13.128;2023-02-28T17:05:08;27.07;;;11.90;;
5543;SDS011;2795;47.652;13.128;2023-02-28T17:07:37;26.63;;;12.00;;
5543;SDS011;2795;47.652;13.128;2023-02-28T17:10:25;26.23;;;12.23;;
5543;SDS011;2795;47.652;13.128;2023-02-28T17:12:51;21.30;;;10.57;;
5543;SDS011;2795;47.652;13.128;2023-02-28T17:15:21;29.07;;;11.73;;
5543;SDS011;2795;47.652;13.128;2023-02-28T17:17:48;26.80;;;12.00;;
5543;SDS011;2795;47.652;13.128;2023-02-28T17:20:17;24.53;;;10.73;;
5543;SDS011;2795;47.652;13.128;2023-02-28T17:22:49;22.90;;;10.60;;
5543;SDS011;2795;47.652;13.128;2023-02-28T17:25:16;25.80;;;11.37;;